createdAt,value
2022-11-17T00:00:39.050Z,100.00
2022-11-17T00:03:05.629Z,100.00
2022-11-17T00:05:32.090Z,100.00
2022-11-17T00:07:58.576Z,100.00
2022-11-17T00:10:25.029Z,100.00
2022-11-17T00:13:10.408Z,100.00
2022-11-17T00:15:37.033Z,100.00
2022-11-17T00:18:22.500Z,100.00
2022-11-17T00:21:07.575Z,100.00
2022-11-17T00:23:49.903Z,100.00
2022-11-17T00:26:25.482Z,100.00
2022-11-17T00:28:59.450Z,100.00
2022-11-17T00:31:47.069Z,100.00
2022-11-17T00:34:19.349Z,100.00
2022-11-17T00:36:46.927Z,100.00
2022-11-17T00:39:15.047Z,100.00
2022-11-17T00:41:41.984Z,100.00
2022-11-17T00:44:09.190Z,100.00
2022-11-17T00:46:37.270Z,100.00
2022-11-17T00:49:05.119Z,100.00
2022-11-17T00:51:31.745Z,100.00
2022-11-17T00:53:58.387Z,100.00
2022-11-17T00:56:28.171Z,100.00
2022-11-17T00:58:54.888Z,100.00
2022-11-17T01:01:21.779Z,100.00
2022-11-17T01:03:48.700Z,100.00
2022-11-17T01:06:17.988Z,100.00
2022-11-17T01:08:44.697Z,100.00
2022-11-17T01:11:15.511Z,100.00
2022-11-17T01:13:42.899Z,100.00
2022-11-17T01:16:15.441Z,100.00
2022-11-17T01:18:43.374Z,100.00
2022-11-17T01:21:11.540Z,100.00
2022-11-17T01:23:39.242Z,100.00
2022-11-17T01:26:17.323Z,100.00
2022-11-17T01:28:44.259Z,100.00
2022-11-17T01:31:16.812Z,100.00
2022-11-17T01:33:44.153Z,100.00
2022-11-17T01:36:30.787Z,100.00
2022-11-17T01:38:57.328Z,100.00
2022-11-17T01:41:28.291Z,100.00
2022-11-17T01:44:19.266Z,100.00
2022-11-17T01:46:46.256Z,100.00
2022-11-17T01:49:25.273Z,100.00
2022-11-17T01:52:06.020Z,99.67
2022-11-17T01:54:35.099Z,99.48
2022-11-17T01:57:08.984Z,98.74
2022-11-17T01:59:41.231Z,98.92
2022-11-17T02:02:08.069Z,98.41
2022-11-17T02:04:38.967Z,98.47
2022-11-17T02:07:08.911Z,97.95
2022-11-17T02:09:38.522Z,98.18
2022-11-17T02:12:08.564Z,97.79
2022-11-17T02:14:36.543Z,97.40
2022-11-17T02:17:11.511Z,97.74
2022-11-17T02:19:42.467Z,97.45
2022-11-17T02:22:20.973Z,97.45
2022-11-17T02:25:21.756Z,97.08
2022-11-17T02:27:58.029Z,97.41
2022-11-17T02:30:24.678Z,98.01
2022-11-17T02:32:51.321Z,97.96
2022-11-17T02:35:36.545Z,98.56
2022-11-17T02:38:34.190Z,98.82
2022-11-17T02:41:22.999Z,99.45
2022-11-17T02:44:08.302Z,100.00
2022-11-17T02:46:45.221Z,99.96
2022-11-17T02:49:22.423Z,100.00
2022-11-17T02:51:53.762Z,100.00
2022-11-17T02:54:22.786Z,100.00
2022-11-17T02:56:49.281Z,100.00
2022-11-17T02:59:18.368Z,100.00
2022-11-17T03:02:14.022Z,100.00
2022-11-17T03:04:40.387Z,100.00
2022-11-17T03:07:29.815Z,100.00
2022-11-17T03:10:15.388Z,100.00
2022-11-17T03:13:04.171Z,100.00
2022-11-17T03:15:59.654Z,100.00
2022-11-17T03:18:56.895Z,100.00
2022-11-17T03:21:48.276Z,100.00
2022-11-17T03:24:27.873Z,100.00
2022-11-17T03:27:00.293Z,100.00
2022-11-17T03:29:32.544Z,100.00
2022-11-17T03:32:02.993Z,100.00
2022-11-17T03:34:35.733Z,100.00
2022-11-17T03:37:05.540Z,100.00
2022-11-17T03:39:34.822Z,100.00
2022-11-17T03:42:09.983Z,100.00
2022-11-17T03:44:40.179Z,100.00
2022-11-17T03:47:09.378Z,100.00
2022-11-17T03:49:45.361Z,100.00
2022-11-17T03:52:11.843Z,100.00
2022-11-17T03:54:39.626Z,100.00
2022-11-17T03:57:13.971Z,100.00
2022-11-17T04:00:00.787Z,100.00
2022-11-17T04:02:28.271Z,100.00
2022-11-17T04:05:06.794Z,100.00
2022-11-17T04:07:44.541Z,100.00
2022-11-17T04:10:19.331Z,100.00
2022-11-17T04:13:05.279Z,100.00
2022-11-17T04:15:50.699Z,100.00
2022-11-17T04:18:17.267Z,100.00
2022-11-17T04:20:43.967Z,100.00
2022-11-17T04:23:14.181Z,100.00
2022-11-17T04:26:03.892Z,100.00
2022-11-17T04:28:38.330Z,100.00
2022-11-17T04:31:07.601Z,100.00
2022-11-17T04:33:34.905Z,100.00
2022-11-17T04:36:01.936Z,100.00
2022-11-17T04:38:28.457Z,100.00
2022-11-17T04:41:23.164Z,100.00
2022-11-17T04:43:50.231Z,100.00
2022-11-17T04:46:17.858Z,100.00
2022-11-17T04:48:44.591Z,99.99
2022-11-17T04:51:11.609Z,100.00
2022-11-17T04:53:38.320Z,99.66
2022-11-17T04:56:05.693Z,99.84
2022-11-17T04:58:32.579Z,100.00
2022-11-17T05:01:12.355Z,100.00
2022-11-17T05:03:39.817Z,99.95
2022-11-17T05:06:06.286Z,100.00
2022-11-17T05:08:35.567Z,99.92
2022-11-17T05:11:20.754Z,100.00
2022-11-17T05:13:49.321Z,100.00
2022-11-17T05:16:34.123Z,100.00
2022-11-17T05:19:00.732Z,100.00
2022-11-17T05:21:27.167Z,100.00
2022-11-17T05:23:56.299Z,100.00
2022-11-17T05:26:34.340Z,100.00
2022-11-17T05:29:03.341Z,100.00
2022-11-17T05:31:29.911Z,100.00
2022-11-17T05:33:56.925Z,100.00
2022-11-17T05:36:24.940Z,100.00
2022-11-17T05:38:51.645Z,100.00
2022-11-17T05:41:19.160Z,100.00
2022-11-17T05:43:46.288Z,100.00
2022-11-17T05:46:13.007Z,100.00
2022-11-17T05:48:39.888Z,100.00
2022-11-17T05:51:06.401Z,100.00
2022-11-17T05:53:33.359Z,100.00
2022-11-17T05:56:28.389Z,100.00
2022-11-17T05:59:01.294Z,100.00
2022-11-17T06:01:29.613Z,99.34
2022-11-17T06:04:02.048Z,99.39
2022-11-17T06:06:28.981Z,99.67
2022-11-17T06:08:56.085Z,99.60
2022-11-17T06:11:22.555Z,99.13
2022-11-17T06:13:48.997Z,98.60
2022-11-17T06:16:18.580Z,98.23
2022-11-17T06:18:51.624Z,97.50
2022-11-17T06:21:18.381Z,96.18
2022-11-17T06:23:47.397Z,96.49
2022-11-17T06:26:14.968Z,96.52
2022-11-17T06:28:44.833Z,95.51
2022-11-17T06:31:11.935Z,93.88
2022-11-17T06:33:38.891Z,93.66
2022-11-17T06:36:07.599Z,93.93
2022-11-17T06:38:35.831Z,94.33
2022-11-17T06:41:11.527Z,93.63
2022-11-17T06:43:38.748Z,93.97
2022-11-17T06:46:05.940Z,94.24
2022-11-17T06:48:35.843Z,94.28
2022-11-17T06:51:04.866Z,94.25
2022-11-17T06:53:33.759Z,94.45
2022-11-17T06:56:03.782Z,93.98
2022-11-17T06:58:31.233Z,94.01
2022-11-17T07:01:09.667Z,92.88
2022-11-17T07:03:37.911Z,92.77
2022-11-17T07:06:06.618Z,91.66
2022-11-17T07:08:34.910Z,91.04
2022-11-17T07:11:03.680Z,90.77
2022-11-17T07:13:32.946Z,91.17
2022-11-17T07:16:04.618Z,90.91
2022-11-17T07:18:31.395Z,91.41
2022-11-17T07:21:02.147Z,92.06
2022-11-17T07:23:29.092Z,92.66
2022-11-17T07:25:55.769Z,92.97
2022-11-17T07:28:22.425Z,92.46
2022-11-17T07:30:49.381Z,93.93
2022-11-17T07:33:15.977Z,94.31
2022-11-17T07:35:42.533Z,93.96
2022-11-17T07:38:09.067Z,95.33
2022-11-17T07:40:35.590Z,95.61
2022-11-17T07:43:02.202Z,96.17
2022-11-17T07:45:31.935Z,96.51
2022-11-17T07:48:00.924Z,95.93
2022-11-17T07:50:28.172Z,94.87
2022-11-17T07:52:56.711Z,93.68
2022-11-17T07:55:24.580Z,93.24
2022-11-17T07:58:01.425Z,92.57
2022-11-17T08:00:29.330Z,90.85
2022-11-17T08:02:59.697Z,90.50
2022-11-17T08:05:30.534Z,91.45
2022-11-17T08:07:59.010Z,90.49
2022-11-17T08:10:31.403Z,89.78
2022-11-17T08:13:00.896Z,90.21
2022-11-17T08:15:29.500Z,89.52
2022-11-17T08:17:57.745Z,89.12
2022-11-17T08:20:25.407Z,90.24
2022-11-17T08:22:53.109Z,88.69
2022-11-17T08:25:21.185Z,89.44
2022-11-17T08:27:51.923Z,88.86
2022-11-17T08:30:20.347Z,87.44
2022-11-17T08:32:52.188Z,88.15
2022-11-17T08:35:20.309Z,88.98
2022-11-17T08:37:47.179Z,88.05
2022-11-17T08:40:14.166Z,87.54
2022-11-17T08:42:40.631Z,86.85
2022-11-17T08:45:07.844Z,86.82
2022-11-17T08:47:34.393Z,86.46
2022-11-17T08:50:00.914Z,86.11
2022-11-17T08:52:28.349Z,85.68
2022-11-17T08:54:55.276Z,84.52
2022-11-17T08:57:22.182Z,84.28
2022-11-17T08:59:49.293Z,85.71
2022-11-17T09:02:16.863Z,82.78
2022-11-17T09:04:45.555Z,83.13
2022-11-17T09:07:12.148Z,82.24
2022-11-17T09:09:38.698Z,83.44
2022-11-17T09:12:05.598Z,82.11
2022-11-17T09:14:32.061Z,81.56
2022-11-17T09:16:58.548Z,81.05
2022-11-17T09:19:25.117Z,81.08
2022-11-17T09:21:51.559Z,78.41
2022-11-17T09:24:17.981Z,78.46
2022-11-17T09:26:44.693Z,77.98
2022-11-17T09:29:11.323Z,77.91
2022-11-17T09:31:38.415Z,78.10
2022-11-17T09:34:06.092Z,77.16
2022-11-17T09:36:33.735Z,75.98
2022-11-17T09:39:00.952Z,76.05
2022-11-17T09:41:35.809Z,75.04
2022-11-17T09:44:34.322Z,73.71
2022-11-17T09:47:22.407Z,74.73
2022-11-17T09:50:10.408Z,72.18
2022-11-17T09:52:42.954Z,73.34
2022-11-17T09:55:09.350Z,73.29
2022-11-17T09:57:43.527Z,72.54
2022-11-17T10:00:16.769Z,71.85
2022-11-17T10:02:43.820Z,72.76
2022-11-17T10:05:39.547Z,72.36
2022-11-17T10:08:11.280Z,72.14
2022-11-17T10:10:44.906Z,71.65
2022-11-17T10:13:24.786Z,71.43
2022-11-17T10:16:02.759Z,71.43
2022-11-17T10:18:37.675Z,71.85
2022-11-17T10:21:06.747Z,71.75
2022-11-17T10:23:45.766Z,71.43
2022-11-17T10:26:14.941Z,71.98
2022-11-17T10:28:41.566Z,71.86
2022-11-17T10:31:10.780Z,72.08
2022-11-17T10:33:39.127Z,72.21
2022-11-17T10:36:15.377Z,72.30
2022-11-17T10:38:47.653Z,71.99
2022-11-17T10:41:21.171Z,71.45
2022-11-17T10:43:56.548Z,72.30
2022-11-17T10:46:24.082Z,72.01
2022-11-17T10:49:02.036Z,72.30
2022-11-17T10:51:33.601Z,70.77
2022-11-17T10:54:01.712Z,71.75
2022-11-17T10:56:29.782Z,72.14
2022-11-17T10:59:18.879Z,72.26
2022-11-17T11:01:47.353Z,72.50
2022-11-17T11:04:37.029Z,72.12
2022-11-17T11:07:23.384Z,72.00
2022-11-17T11:10:03.343Z,72.26
2022-11-17T11:12:50.030Z,72.16
2022-11-17T11:15:31.424Z,71.32
2022-11-17T11:17:58.082Z,71.55
2022-11-17T11:20:36.233Z,72.10
2022-11-17T11:23:14.046Z,72.37
2022-11-17T11:25:43.248Z,71.52
2022-11-17T11:28:28.173Z,72.47
2022-11-17T11:31:14.723Z,72.22
2022-11-17T11:34:10.963Z,71.97
2022-11-17T11:36:44.483Z,71.29
2022-11-17T11:39:29.432Z,70.90
2022-11-17T11:42:12.033Z,70.90
2022-11-17T11:45:16.497Z,70.09
2022-11-17T11:48:20.856Z,70.78
2022-11-17T11:50:57.845Z,70.03
2022-11-17T11:53:51.687Z,68.94
2022-11-17T11:56:30.789Z,68.92
2022-11-17T11:59:06.543Z,69.78
2022-11-17T12:02:11.398Z,70.19
2022-11-17T12:04:59.247Z,69.38
2022-11-17T12:07:44.380Z,69.72
2022-11-17T12:10:33.733Z,69.73
2022-11-17T12:13:01.894Z,68.88
2022-11-17T12:15:28.367Z,69.15
2022-11-17T12:18:13.523Z,68.43
2022-11-17T12:20:40.933Z,68.19
2022-11-17T12:23:22.586Z,68.38
2022-11-17T12:25:58.021Z,68.45
2022-11-17T12:28:32.500Z,68.22
2022-11-17T12:31:09.506Z,68.75
2022-11-17T12:33:59.276Z,67.34
2022-11-17T12:36:35.731Z,67.20
2022-11-17T12:39:06.947Z,66.58
2022-11-17T12:41:48.664Z,66.86
2022-11-17T12:44:37.244Z,67.55
2022-11-17T12:47:15.770Z,67.63
2022-11-17T12:50:16.289Z,67.84
2022-11-17T12:53:01.198Z,68.14
2022-11-17T12:55:57.774Z,68.28
2022-11-17T12:58:52.152Z,68.60
2022-11-17T13:01:31.273Z,68.49
2022-11-17T13:04:04.618Z,68.35
2022-11-17T13:06:35.881Z,68.78
2022-11-17T13:09:12.184Z,68.21
2022-11-17T13:11:38.708Z,68.30
2022-11-17T13:14:16.005Z,67.72
2022-11-17T13:16:52.104Z,67.68
2022-11-17T13:19:35.665Z,67.68
2022-11-17T13:22:10.992Z,67.94
2022-11-17T13:24:39.936Z,68.00
2022-11-17T13:27:20.132Z,68.08
2022-11-17T13:29:46.669Z,68.44
2022-11-17T13:32:30.513Z,67.88
2022-11-17T13:34:57.721Z,67.84
2022-11-17T13:37:29.743Z,67.60
2022-11-17T13:40:17.275Z,68.29
2022-11-17T13:42:43.987Z,68.89
2022-11-17T13:45:14.871Z,68.57
2022-11-17T13:47:47.306Z,68.55
2022-11-17T13:50:22.577Z,68.23
2022-11-17T13:53:10.963Z,68.04
2022-11-17T13:55:44.264Z,69.10
2022-11-17T13:58:26.503Z,68.52
2022-11-17T14:00:58.907Z,67.91
2022-11-17T14:03:45.685Z,67.91
2022-11-17T14:06:14.249Z,68.16
2022-11-17T14:08:43.497Z,67.63
2022-11-17T14:11:09.912Z,67.82
2022-11-17T14:13:44.831Z,67.83
2022-11-17T14:16:34.724Z,68.32
2022-11-17T14:19:14.172Z,68.06
2022-11-17T14:22:00.939Z,68.34
2022-11-17T14:24:28.342Z,67.89
2022-11-17T14:26:55.420Z,68.32
2022-11-17T14:29:21.911Z,68.14
2022-11-17T14:31:48.381Z,68.41
2022-11-17T14:34:15.242Z,68.52
2022-11-17T14:36:42.234Z,68.10
2022-11-17T14:39:17.069Z,67.12
2022-11-17T14:41:45.153Z,67.51
2022-11-17T14:44:11.944Z,67.58
2022-11-17T14:46:38.854Z,67.47
2022-11-17T14:49:05.850Z,67.45
2022-11-17T14:51:32.741Z,67.61
2022-11-17T14:53:59.265Z,67.34
2022-11-17T14:56:26.106Z,68.53
2022-11-17T14:58:59.984Z,67.55
2022-11-17T15:01:32.398Z,67.24
2022-11-17T15:04:10.988Z,67.52
2022-11-17T15:06:47.491Z,67.50
2022-11-17T15:09:16.369Z,68.21
2022-11-17T15:11:42.838Z,67.35
2022-11-17T15:14:10.922Z,67.41
2022-11-17T15:16:37.438Z,67.58
2022-11-17T15:19:04.089Z,67.87
2022-11-17T15:21:30.556Z,67.72
2022-11-17T15:23:57.210Z,67.75
2022-11-17T15:26:23.820Z,67.65
2022-11-17T15:28:50.330Z,67.88
2022-11-17T15:31:19.485Z,68.09
2022-11-17T15:33:47.902Z,67.93
2022-11-17T15:36:19.515Z,68.17
2022-11-17T15:38:47.455Z,68.16
2022-11-17T15:41:15.122Z,68.17
2022-11-17T15:43:43.443Z,68.48
2022-11-17T15:46:17.638Z,68.60
2022-11-17T15:48:47.196Z,68.67
2022-11-17T15:51:21.318Z,68.66
2022-11-17T15:53:49.267Z,68.84
2022-11-17T15:56:30.018Z,68.59
2022-11-17T15:58:58.694Z,69.43
2022-11-17T16:01:36.427Z,68.77
2022-11-17T16:04:04.155Z,68.92
2022-11-17T16:06:32.152Z,69.24
2022-11-17T16:08:58.880Z,68.72
2022-11-17T16:11:26.975Z,68.96
2022-11-17T16:13:59.262Z,69.09
2022-11-17T16:16:28.749Z,69.11
2022-11-17T16:18:55.338Z,68.97
2022-11-17T16:21:22.093Z,69.37
2022-11-17T16:23:50.515Z,68.70
2022-11-17T16:26:19.252Z,68.99
2022-11-17T16:28:48.997Z,69.40
2022-11-17T16:31:17.195Z,68.99
2022-11-17T16:33:49.184Z,69.05
2022-11-17T16:36:17.539Z,69.31
2022-11-17T16:38:59.826Z,69.11
2022-11-17T16:41:31.450Z,69.57
2022-11-17T16:43:57.948Z,69.84
2022-11-17T16:46:30.674Z,69.88
2022-11-17T16:49:01.159Z,70.35
2022-11-17T16:51:27.919Z,70.01
2022-11-17T16:53:57.212Z,70.17
2022-11-17T16:56:24.061Z,70.64
2022-11-17T16:58:51.399Z,70.76
2022-11-17T17:01:20.213Z,71.05
2022-11-17T17:03:46.775Z,70.75
2022-11-17T17:06:16.621Z,71.13
2022-11-17T17:08:43.268Z,71.40
2022-11-17T17:11:15.330Z,71.48
2022-11-17T17:13:42.954Z,71.79
2022-11-17T17:16:12.553Z,71.81
2022-11-17T17:18:40.428Z,72.26
2022-11-17T17:21:10.247Z,71.86
2022-11-17T17:23:36.733Z,72.13
2022-11-17T17:26:07.612Z,72.36
2022-11-17T17:28:36.596Z,72.44
2022-11-17T17:31:04.283Z,72.59
2022-11-17T17:33:32.541Z,72.58
2022-11-17T17:36:03.866Z,72.67
2022-11-17T17:38:30.722Z,72.77
2022-11-17T17:41:03.947Z,72.84
2022-11-17T17:43:30.461Z,72.96
2022-11-17T17:46:01.639Z,73.28
2022-11-17T17:48:30.403Z,73.25
2022-11-17T17:51:04.134Z,73.31
2022-11-17T17:53:30.724Z,73.53
2022-11-17T17:56:05.351Z,73.61
2022-11-17T17:58:40.124Z,73.41
2022-11-17T18:01:18.314Z,74.30
2022-11-17T18:03:47.989Z,73.99
2022-11-17T18:06:16.675Z,74.38
2022-11-17T18:08:43.771Z,74.23
2022-11-17T18:11:12.719Z,74.60
2022-11-17T18:13:41.632Z,74.71
2022-11-17T18:16:11.483Z,75.10
2022-11-17T18:18:39.079Z,75.10
2022-11-17T18:21:13.976Z,75.57
2022-11-17T18:23:41.384Z,76.45
2022-11-17T18:26:10.576Z,76.01
2022-11-17T18:28:38.532Z,75.53
2022-11-17T18:31:07.911Z,75.35
2022-11-17T18:33:35.233Z,75.82
2022-11-17T18:36:09.441Z,76.55
2022-11-17T18:38:37.382Z,76.43
2022-11-17T18:41:08.471Z,76.38
2022-11-17T18:43:35.501Z,76.33
2022-11-17T18:46:07.410Z,76.60
2022-11-17T18:48:35.528Z,76.52
2022-11-17T18:51:20.342Z,76.90
2022-11-17T18:53:48.474Z,77.15
2022-11-17T18:56:16.537Z,77.02
2022-11-17T18:58:44.421Z,78.82
2022-11-17T19:01:19.160Z,79.58
2022-11-17T19:03:47.834Z,78.64
2022-11-17T19:06:15.350Z,79.81
2022-11-17T19:08:42.353Z,78.39
2022-11-17T19:11:10.760Z,78.36
2022-11-17T19:13:39.183Z,79.30
2022-11-17T19:16:10.263Z,78.75
2022-11-17T19:18:37.103Z,78.68
2022-11-17T19:21:12.873Z,79.72
2022-11-17T19:23:41.937Z,80.07
2022-11-17T19:26:11.690Z,79.61
2022-11-17T19:28:39.354Z,81.35
2022-11-17T19:31:08.743Z,81.29
2022-11-17T19:33:38.351Z,80.28
2022-11-17T19:36:23.162Z,81.12
2022-11-17T19:38:51.900Z,81.01
2022-11-17T19:41:21.140Z,81.83
2022-11-17T19:43:48.326Z,80.28
2022-11-17T19:46:16.874Z,81.03
2022-11-17T19:48:44.696Z,80.49
2022-11-17T19:51:17.417Z,81.88
2022-11-17T19:53:44.687Z,81.02
2022-11-17T19:56:11.427Z,81.77
2022-11-17T19:58:38.071Z,80.94
2022-11-17T20:01:16.152Z,81.17
2022-11-17T20:03:43.585Z,80.71
2022-11-17T20:06:13.033Z,81.40
2022-11-17T20:08:40.152Z,81.47
2022-11-17T20:11:10.397Z,81.13
2022-11-17T20:13:37.355Z,82.24
2022-11-17T20:16:11.431Z,80.94
2022-11-17T20:18:38.682Z,82.28
2022-11-17T20:21:06.288Z,82.24
2022-11-17T20:23:34.893Z,81.38
2022-11-17T20:26:10.485Z,81.96
2022-11-17T20:28:38.476Z,81.64
2022-11-17T20:31:19.355Z,82.86
2022-11-17T20:33:46.955Z,81.39
2022-11-17T20:36:18.515Z,81.28
2022-11-17T20:38:49.406Z,81.41
2022-11-17T20:41:15.878Z,82.08
2022-11-17T20:43:42.421Z,82.00
2022-11-17T20:46:09.441Z,82.22
2022-11-17T20:48:36.003Z,81.79
2022-11-17T20:51:09.346Z,81.62
2022-11-17T20:53:35.900Z,82.11
2022-11-17T20:56:06.046Z,83.12
2022-11-17T20:58:33.249Z,82.97
2022-11-17T21:01:16.032Z,83.15
2022-11-17T21:03:43.524Z,83.10
2022-11-17T21:06:10.644Z,83.33
2022-11-17T21:08:39.434Z,83.72
2022-11-17T21:11:08.825Z,83.23
2022-11-17T21:13:37.007Z,83.99
2022-11-17T21:16:14.756Z,84.03
2022-11-17T21:18:48.440Z,84.10
2022-11-17T21:21:15.843Z,83.47
2022-11-17T21:23:43.952Z,83.80
2022-11-17T21:26:13.647Z,84.20
2022-11-17T21:28:41.161Z,83.95
2022-11-17T21:31:13.842Z,84.54
2022-11-17T21:33:41.306Z,84.13
2022-11-17T21:36:10.443Z,84.93
2022-11-17T21:38:37.355Z,84.36
2022-11-17T21:41:06.053Z,84.55
2022-11-17T21:43:35.320Z,86.00
2022-11-17T21:46:03.456Z,85.40
2022-11-17T21:48:30.043Z,86.08
2022-11-17T21:50:56.668Z,85.22
2022-11-17T21:53:23.186Z,85.57
2022-11-17T21:55:49.745Z,85.34
2022-11-17T21:58:16.207Z,86.02
2022-11-17T22:00:42.759Z,88.28
2022-11-17T22:03:09.302Z,88.15
2022-11-17T22:05:35.781Z,88.01
2022-11-17T22:08:02.411Z,87.39
2022-11-17T22:10:28.831Z,86.93
2022-11-17T22:12:55.324Z,86.90
2022-11-17T22:15:21.793Z,88.53
2022-11-17T22:17:48.763Z,87.85
2022-11-17T22:20:15.564Z,87.93
2022-11-17T22:22:42.148Z,87.80
2022-11-17T22:25:37.456Z,88.17
2022-11-17T22:27:55.641Z,88.60
2022-11-17T22:30:22.088Z,88.97
2022-11-17T22:32:48.539Z,89.80
2022-11-17T22:35:15.092Z,88.85
2022-11-17T22:37:41.566Z,89.33
2022-11-17T22:40:08.275Z,89.45
2022-11-17T22:42:34.723Z,88.92
2022-11-17T22:45:01.183Z,88.60
2022-11-17T22:47:27.661Z,89.88
2022-11-17T22:49:54.105Z,89.48
2022-11-17T22:52:20.607Z,89.69
2022-11-17T22:54:47.070Z,89.32
2022-11-17T22:57:13.597Z,89.21
2022-11-17T22:59:40.049Z,88.96
2022-11-17T23:02:06.557Z,88.93
2022-11-17T23:04:33.015Z,88.76
2022-11-17T23:06:59.596Z,88.81
2022-11-17T23:09:26.085Z,88.39
2022-11-17T23:11:52.574Z,88.71
2022-11-17T23:14:19.130Z,90.11
2022-11-17T23:16:45.590Z,90.59
2022-11-17T23:19:13.348Z,90.07
2022-11-17T23:21:40.484Z,89.52
2022-11-17T23:24:09.901Z,89.99
2022-11-17T23:26:36.388Z,91.16
2022-11-17T23:29:02.836Z,92.27
2022-11-17T23:31:29.303Z,91.82
2022-11-17T23:33:55.791Z,91.97
2022-11-17T23:36:23.145Z,91.80
2022-11-17T23:38:51.049Z,91.26
2022-11-17T23:41:20.387Z,93.53
2022-11-17T23:43:50.679Z,93.59
2022-11-17T23:46:19.191Z,93.90
2022-11-17T23:48:45.865Z,94.11
2022-11-17T23:51:15.377Z,93.59
2022-11-17T23:53:42.535Z,92.83
2022-11-17T23:56:10.480Z,92.93
2022-11-17T23:58:37.834Z,91.68
